Time;durP1;ratioP1;P1;durP2;ratioP2;P2;SDS_P1;SDS_P2;PMS_P1;PMS_P2;Temp;Humidity;BMP_temperature;BMP_pressure;BME280_temperature;BME280_humidity;BME280_pressure;Samples;Min_cycle;Max_cycle;Signal;HPM_P1;HPM_P2
2022/04/26 03:37:55;;;;;;;7.90;4.00;;;;;;;-145.50;100.00;65435.88;5087281;27;20506;-67
2022/04/26 03:40:21;;;;;;;10.88;4.40;;;;;;;-145.50;100.00;65435.88;5099962;28;20054;-68
2022/04/26 03:42:48;;;;;;;8.93;4.15;;;;;;;-145.50;100.00;65435.88;5091523;28;20409;-67
2022/04/26 03:45:14;;;;;;;8.30;4.07;;;;;;;-145.50;100.00;65435.88;5084120;28;20055;-67
2022/04/26 03:47:40;;;;;;;7.03;4.15;;;;;;;-145.50;100.00;65435.88;5098911;28;20543;-68
2022/04/26 03:50:07;;;;;;;9.20;4.40;;;;;;;-145.50;100.00;65435.88;5076219;28;20055;-68
2022/04/26 03:52:33;;;;;;;7.57;4.13;;;;;;;-145.50;100.00;65435.88;5097630;28;20048;-67
2022/04/26 03:55:03;;;;;;;8.18;4.03;;;;;;;-145.50;100.00;65435.88;5075181;28;20052;-67
2022/04/26 03:57:30;;;;;;;11.45;4.47;;;;;;;-145.50;100.00;65435.88;5092231;28;20051;-67
2022/04/26 03:59:56;;;;;;;7.63;4.05;;;;;;;-145.50;100.00;65435.88;5100418;28;20511;-68
2022/04/26 04:02:23;;;;;;;9.05;4.47;;;;;;;-145.50;100.00;65435.88;5086436;27;20056;-67
2022/04/26 04:04:49;;;;;;;9.07;4.53;;;;;;;-145.50;100.00;65435.88;5094029;28;20479;-67
2022/04/26 04:07:16;;;;;;;11.20;5.20;;;;;;;-145.50;100.00;65435.88;5089941;27;20056;-68
2022/04/26 04:09:42;;;;;;;9.80;4.57;;;;;;;-145.50;100.00;65435.88;5095187;28;20048;-67
2022/04/26 04:12:09;;;;;;;10.30;4.30;;;;;;;-145.50;100.00;65435.88;5086573;27;20055;-67
2022/04/26 04:14:36;;;;;;;10.30;4.00;;;;;;;-145.50;100.00;65435.88;5091321;28;20099;-68
2022/04/26 04:17:02;;;;;;;9.13;4.50;;;;;;;-145.50;100.00;65435.88;5085860;28;20055;-67
2022/04/26 04:19:30;;;;;;;10.88;4.63;;;;;;;-145.50;100.00;65435.88;5093108;28;20062;-67
2022/04/26 04:21:56;;;;;;;8.52;4.43;;;;;;;-145.50;100.00;65435.88;5081916;28;20081;-67
2022/04/26 04:24:23;;;;;;;9.60;4.60;;;;;;;-145.50;100.00;65435.88;5078372;28;20138;-68
2022/04/26 04:26:49;;;;;;;9.65;4.55;;;;;;;-145.50;100.00;65435.88;5084492;28;20047;-67
2022/04/26 04:29:16;;;;;;;7.63;4.57;;;;;;;-145.50;100.00;65435.88;5086353;28;20058;-67
2022/04/26 04:31:43;;;;;;;9.70;4.53;;;;;;;-145.50;100.00;65435.88;5098448;28;20040;-67
2022/04/26 04:34:10;;;;;;;9.50;4.88;;;;;;;-145.50;100.00;65435.88;5083060;28;20420;-67
2022/04/26 04:36:36;;;;;;;11.20;5.40;;;;;;;-145.50;100.00;65435.88;5081404;28;20563;-67
2022/04/26 04:39:03;;;;;;;9.77;5.25;;;;;;;-145.50;100.00;65435.88;5060802;28;20059;-67
2022/04/26 04:41:36;;;;;;;10.95;6.28;;;;;;;-145.50;100.00;65435.88;5077182;28;20052;-67
2022/04/26 04:44:04;;;;;;;9.45;5.20;;;;;;;-145.50;100.00;65435.88;5102863;28;20057;-67
2022/04/26 04:46:31;;;;;;;11.75;5.55;;;;;;;-145.50;100.00;65435.88;5088331;27;20050;-67
2022/04/26 04:48:57;;;;;;;8.73;4.78;;;;;;;-145.50;100.00;65435.88;5089116;28;20454;-67
2022/04/26 04:51:24;;;;;;;11.82;5.65;;;;;;;-145.50;100.00;65435.88;5078105;28;20048;-68
2022/04/26 04:53:50;;;;;;;7.57;4.45;;;;;;;-145.50;100.00;65435.88;5074807;28;20051;-68
2022/04/26 04:56:17;;;;;;;12.48;5.63;;;;;;;-145.50;100.00;65435.88;5079155;28;20051;-67
2022/04/26 04:58:43;;;;;;;13.00;5.88;;;;;;;-145.50;100.00;65435.88;5088923;28;20063;-67
2022/04/26 05:01:09;;;;;;;10.07;5.25;;;;;;;-145.50;100.00;65435.88;5097347;28;20134;-67
2022/04/26 05:03:36;;;;;;;12.15;5.97;;;;;;;-145.50;100.00;65435.88;5086016;27;20056;-67
2022/04/26 05:06:03;;;;;;;11.27;5.88;;;;;;;-145.50;100.00;65435.88;5075881;28;20056;-67
2022/04/26 05:08:29;;;;;;;11.48;6.00;;;;;;;-145.50;100.00;65435.88;5094670;28;20047;-67
2022/04/26 05:10:55;;;;;;;10.00;5.32;;;;;;;-145.50;100.00;65435.88;5092980;28;20142;-67
2022/04/26 05:13:22;;;;;;;12.77;6.63;;;;;;;-145.50;100.00;65435.88;5097163;28;20044;-67
2022/04/26 05:15:48;;;;;;;16.08;7.00;;;;;;;-145.50;100.00;65435.88;5074639;28;20544;-67
2022/04/26 05:18:15;;;;;;;15.70;6.65;;;;;;;-145.50;100.00;65435.88;5079759;28;20058;-66
2022/04/26 05:20:42;;;;;;;12.80;6.65;;;;;;;-145.50;100.00;65435.88;5082331;28;20054;-67
2022/04/26 05:25:53;;;;;;;14.10;6.97;;;;;;;-145.50;100.00;65435.88;5082999;28;20062;-67
2022/04/26 05:28:20;;;;;;;12.32;6.95;;;;;;;-145.50;100.00;65435.88;5083351;28;20054;-68
2022/04/26 05:30:53;;;;;;;12.75;7.05;;;;;;;-145.50;100.00;65435.88;5089199;28;20048;-68
2022/04/26 05:33:21;;;;;;;17.95;8.00;;;;;;;-145.50;100.00;65435.88;5086365;28;20158;-68
2022/04/26 05:35:48;;;;;;;13.50;7.03;;;;;;;-145.50;100.00;65435.88;5093118;28;20432;-67
2022/04/26 05:38:15;;;;;;;13.45;7.53;;;;;;;-145.50;100.00;65435.88;5079759;28;20056;-68
2022/04/26 05:40:42;;;;;;;15.00;7.88;;;;;;;-145.50;100.00;65435.88;5089450;28;20055;-67
2022/04/26 05:43:09;;;;;;;12.00;8.02;;;;;;;-145.50;100.00;65435.88;5098385;28;20047;-68
2022/04/26 05:45:36;;;;;;;13.60;7.57;;;;;;;-145.50;100.00;65435.88;5081203;28;20061;-67
2022/04/26 05:48:08;;;;;;;12.98;7.80;;;;;;;-145.50;100.00;65435.88;5087312;28;20059;-68
2022/04/26 05:50:34;;;;;;;10.77;7.80;;;;;;;-145.50;100.00;65435.88;5086354;28;20048;-68
2022/04/26 05:53:01;;;;;;;14.43;7.78;;;;;;;-145.50;100.00;65435.88;5105035;28;20058;-67
2022/04/26 05:55:27;;;;;;;12.73;6.97;;;;;;;-145.50;100.00;65435.88;5098760;27;20051;-66
2022/04/26 05:57:53;;;;;;;9.48;7.05;;;;;;;-145.50;100.00;65435.88;5092579;28;20052;-66
2022/04/26 06:00:20;;;;;;;16.10;7.65;;;;;;;-145.50;100.00;65435.88;5068564;28;20067;-66
2022/04/26 06:02:48;;;;;;;12.93;7.15;;;;;;;-145.50;100.00;65435.88;5075067;28;20052;-66
2022/04/26 06:05:18;;;;;;;15.27;8.15;;;;;;;-145.50;100.00;65435.88;5096942;28;20052;-67
2022/04/26 06:07:45;;;;;;;11.45;7.35;;;;;;;-145.50;100.00;65435.88;5081071;28;20142;-67
2022/04/26 06:10:11;;;;;;;13.75;7.18;;;;;;;-145.50;100.00;65435.88;5086482;28;20048;-67
2022/04/26 06:12:39;;;;;;;13.95;7.05;;;;;;;-145.50;100.00;65435.88;5096685;28;20386;-67
2022/04/26 06:15:06;;;;;;;11.80;6.88;;;;;;;-145.50;100.00;65435.88;5085718;28;20283;-67
2022/04/26 06:17:32;;;;;;;12.65;6.90;;;;;;;-145.50;100.00;65435.88;5093326;28;20048;-67
2022/04/26 06:19:59;;;;;;;12.60;6.45;;;;;;;-145.50;100.00;65435.88;5095107;27;20056;-68
2022/04/26 06:22:25;;;;;;;12.73;6.75;;;;;;;-145.50;100.00;65435.88;5091746;28;20055;-68
2022/04/26 06:24:52;;;;;;;13.85;7.82;;;;;;;-145.50;100.00;65435.88;5089210;27;20044;-67
2022/04/26 06:27:18;;;;;;;13.82;6.75;;;;;;;-145.50;100.00;65435.88;5108933;28;20083;-66
2022/04/26 06:29:45;;;;;;;15.25;6.68;;;;;;;-145.50;100.00;65435.88;5094216;28;20066;-68
2022/04/26 06:32:11;;;;;;;11.18;7.93;;;;;;;-145.50;100.00;65435.88;5084420;28;20048;-68
2022/04/26 06:34:38;;;;;;;15.38;7.75;;;;;;;-145.50;100.00;65435.88;5081809;28;20050;-69
2022/04/26 06:37:04;;;;;;;16.02;7.55;;;;;;;-145.50;100.00;65435.88;5083602;28;20056;-68
2022/04/26 06:39:31;;;;;;;13.68;7.28;;;;;;;-145.50;100.00;65435.88;5093929;28;20123;-68
2022/04/26 06:41:57;;;;;;;13.15;7.05;;;;;;;-145.50;100.00;65435.88;5085704;28;20507;-68
2022/04/26 06:44:25;;;;;;;9.90;6.57;;;;;;;-145.50;100.00;65435.88;5088896;28;20045;-68
2022/04/26 06:46:55;;;;;;;16.98;6.90;;;;;;;-145.50;100.00;65435.88;5090379;28;20138;-68
2022/04/26 06:49:22;;;;;;;14.27;7.05;;;;;;;-145.50;100.00;65435.88;5094403;28;20142;-69
2022/04/26 06:51:48;;;;;;;12.52;7.10;;;;;;;-145.50;100.00;65435.88;5094403;28;20488;-69
2022/04/26 06:54:15;;;;;;;16.70;7.03;;;;;;;-145.50;100.00;65435.88;5095118;27;20515;-68
2022/04/26 06:56:43;;;;;;;12.85;6.10;;;;;;;-145.50;100.00;65435.88;5090682;28;20640;-68
2022/04/26 06:59:09;;;;;;;12.15;6.40;;;;;;;-145.50;100.00;65435.88;5090012;28;20055;-68
2022/04/26 07:01:36;;;;;;;11.73;6.50;;;;;;;-145.50;100.00;65435.88;5095668;28;20120;-69
2022/04/26 07:04:06;;;;;;;12.98;6.95;;;;;;;-145.50;100.00;65435.88;5095508;28;20480;-69
2022/04/26 07:06:34;;;;;;;12.68;6.78;;;;;;;-145.50;100.00;65435.88;5087311;27;20140;-69
2022/04/26 07:09:01;;;;;;;11.70;6.43;;;;;;;-145.50;100.00;65435.88;5072602;28;20405;-68
2022/04/26 07:11:27;;;;;;;13.40;7.10;;;;;;;-145.50;100.00;65435.88;5083052;28;20147;-67
2022/04/26 07:13:57;;;;;;;13.23;7.20;;;;;;;-145.50;100.00;65435.88;5093139;28;20067;-68
2022/04/26 07:16:23;;;;;;;12.45;6.75;;;;;;;-145.50;100.00;65435.88;5066224;28;20058;-68
2022/04/26 07:18:50;;;;;;;12.40;7.18;;;;;;;-145.50;100.00;65435.88;5090899;28;20552;-69
2022/04/26 07:21:17;;;;;;;13.38;6.57;;;;;;;-145.50;100.00;65435.88;5092641;28;20158;-68
2022/04/26 07:23:43;;;;;;;12.88;6.60;;;;;;;-145.50;100.00;65435.88;5080115;28;20738;-68
2022/04/26 07:26:10;;;;;;;13.38;6.30;;;;;;;-145.50;100.00;65435.88;5089367;28;20130;-69
2022/04/26 07:28:36;;;;;;;15.32;7.35;;;;;;;-145.50;100.00;65435.88;5082970;28;20552;-68
2022/04/26 07:31:05;;;;;;;11.43;6.72;;;;;;;-145.50;100.00;65435.88;5089848;28;20074;-67
2022/04/26 07:36:17;;;;;;;12.00;6.68;;;;;;;-145.50;100.00;65435.88;5097591;28;20047;-67
2022/04/26 07:38:43;;;;;;;12.40;6.60;;;;;;;-145.50;100.00;65435.88;5094295;28;20040;-68
2022/04/26 07:41:11;;;;;;;15.13;6.85;;;;;;;-145.50;100.00;65435.88;5089044;27;20048;-68
2022/04/26 07:43:37;;;;;;;21.70;7.63;;;;;;;-145.50;100.00;65435.88;5103792;28;20048;-69
2022/04/26 07:46:04;;;;;;;12.15;6.63;;;;;;;-145.50;100.00;65435.88;5085499;28;20056;-68
2022/04/26 07:48:31;;;;;;;10.98;6.57;;;;;;;-145.50;100.00;65435.88;5095245;28;20048;-67
2022/04/26 07:50:58;;;;;;;11.65;6.70;;;;;;;-145.50;100.00;65435.88;5080508;28;20051;-68
2022/04/26 07:53:26;;;;;;;14.73;6.75;;;;;;;-145.50;100.00;65435.88;5085397;28;20051;-67
2022/04/26 07:55:53;;;;;;;14.35;6.18;;;;;;;-145.50;100.00;65435.88;5089512;28;20536;-68
2022/04/26 07:58:19;;;;;;;12.95;6.78;;;;;;;-145.50;100.00;65435.88;5085400;28;20148;-67
2022/04/26 08:00:46;;;;;;;10.80;6.18;;;;;;;-145.50;100.00;65435.88;5089247;28;20044;-68
2022/04/26 08:03:13;;;;;;;17.92;7.13;;;;;;;-145.50;100.00;65435.88;5082997;28;20052;-67
2022/04/26 08:05:40;;;;;;;8.95;6.15;;;;;;;-145.50;100.00;65435.88;5098574;28;20113;-67
2022/04/26 08:08:07;;;;;;;13.85;6.72;;;;;;;-145.50;100.00;65435.88;5082962;28;20051;-68
2022/04/26 08:10:35;;;;;;;15.77;6.55;;;;;;;-145.50;100.00;65435.88;5103182;28;20401;-68
2022/04/26 08:13:01;;;;;;;12.25;6.50;;;;;;;-145.50;100.00;65435.88;5101259;28;20055;-67
2022/04/26 08:15:28;;;;;;;14.10;6.13;;;;;;;-145.50;100.00;65435.88;5093818;28;20052;-68
2022/04/26 08:17:54;;;;;;;10.55;5.72;;;;;;;-145.50;100.00;65435.88;5088901;28;20154;-69
2022/04/26 08:20:22;;;;;;;11.07;6.20;;;;;;;-145.50;100.00;65435.88;5088365;27;20047;-70
2022/04/26 08:22:48;;;;;;;15.20;6.37;;;;;;;-145.50;100.00;65435.88;5095636;28;20047;-68
2022/04/26 08:28:01;;;;;;;11.13;5.88;;;;;;;-145.50;100.00;65435.88;5091041;28;20052;-68
2022/04/26 08:30:28;;;;;;;13.97;5.23;;;;;;;-145.50;100.00;65435.88;5085933;28;20515;-68
2022/04/26 08:32:54;;;;;;;11.68;5.63;;;;;;;-145.50;100.00;65435.88;5093348;28;20283;-68
2022/04/26 08:35:23;;;;;;;10.52;5.82;;;;;;;-145.50;100.00;65435.88;5070732;28;20048;-68
2022/04/26 08:38:10;;;;;;;8.43;4.75;;;;;;;-145.50;100.00;65435.88;5086585;28;20082;-69
2022/04/26 08:40:36;;;;;;;8.98;4.50;;;;;;;-145.50;100.00;65435.88;5102959;28;20054;-68
2022/04/26 08:43:03;;;;;;;9.20;4.60;;;;;;;-145.50;100.00;65435.88;5090244;28;20047;-69
2022/04/26 08:45:30;;;;;;;11.38;5.15;;;;;;;-145.50;100.00;65435.88;5092785;28;20122;-69
2022/04/26 08:51:02;;;;;;;8.52;4.35;;;;;;;-145.50;100.00;65435.88;5089019;28;20044;-69
2022/04/26 08:53:33;;;;;;;9.13;4.35;;;;;;;-145.50;100.00;65435.88;5083652;28;20130;-70
2022/04/26 08:56:03;;;;;;;10.98;4.10;;;;;;;-145.50;100.00;65435.88;5089776;28;20123;-69
2022/04/26 08:58:33;;;;;;;5.75;3.90;;;;;;;-145.50;100.00;65435.88;5090057;28;20115;-69
2022/04/26 09:01:18;;;;;;;10.23;4.53;;;;;;;-145.50;100.00;65435.88;5084761;28;20058;-69
2022/04/26 09:03:54;;;;;;;7.47;3.90;;;;;;;-145.50;100.00;65435.88;5091691;28;20150;-69
2022/04/26 09:06:30;;;;;;;7.50;3.95;;;;;;;-145.50;100.00;65435.88;5087267;27;20044;-69
2022/04/26 09:09:08;;;;;;;7.63;3.70;;;;;;;-145.50;100.00;65435.88;5087497;28;20060;-69
2022/04/26 09:11:36;;;;;;;7.38;3.47;;;;;;;-145.50;100.00;65435.88;5090994;28;20058;-69
2022/04/26 09:14:05;;;;;;;8.60;3.90;;;;;;;-145.50;100.00;65435.88;5103034;28;20050;-69
2022/04/26 09:16:32;;;;;;;6.45;3.97;;;;;;;-145.50;100.00;65435.88;5089800;27;20044;-69
2022/04/26 09:19:07;;;;;;;6.38;3.33;;;;;;;-145.50;100.00;65435.88;5093673;28;20052;-69
2022/04/26 09:21:36;;;;;;;8.95;4.03;;;;;;;-145.50;100.00;65435.88;5081302;28;20048;-67
2022/04/26 09:24:06;;;;;;;4.95;2.97;;;;;;;-145.50;100.00;65435.88;5089236;28;20544;-69
2022/04/26 09:26:35;;;;;;;8.35;3.75;;;;;;;-145.50;100.00;65435.88;5094691;28;20047;-68
2022/04/26 09:29:03;;;;;;;7.35;3.80;;;;;;;-145.50;100.00;65435.88;5091679;27;20059;-68
2022/04/26 09:31:32;;;;;;;7.32;3.97;;;;;;;-145.50;100.00;65435.88;5085183;28;20048;-70
2022/04/26 09:34:06;;;;;;;7.45;3.55;;;;;;;-145.50;100.00;65435.88;5081739;28;20052;-68
2022/04/26 09:36:43;;;;;;;7.85;4.30;;;;;;;-145.50;100.00;65435.88;5088894;28;20134;-69
2022/04/26 09:39:15;;;;;;;11.45;3.65;;;;;;;-145.50;100.00;65435.88;5087996;28;20130;-68
2022/04/26 09:42:04;;;;;;;8.13;3.80;;;;;;;-145.50;100.00;65435.88;5084344;28;20048;-68
2022/04/26 09:44:32;;;;;;;5.85;3.67;;;;;;;-145.50;100.00;65435.88;5088060;28;20564;-68
2022/04/26 09:46:59;;;;;;;5.97;3.83;;;;;;;-145.50;100.00;65435.88;5097812;28;20062;-69
2022/04/26 09:49:28;;;;;;;7.90;4.43;;;;;;;-145.50;100.00;65435.88;5094591;28;20075;-69
2022/04/26 09:51:58;;;;;;;7.15;4.10;;;;;;;-145.50;100.00;65435.88;5088578;28;20518;-68
2022/04/26 09:54:25;;;;;;;9.27;4.28;;;;;;;-145.50;100.00;65435.88;5095275;28;20134;-70
2022/04/26 09:56:52;;;;;;;12.32;4.25;;;;;;;-145.50;100.00;65435.88;5077778;28;20166;-68
2022/04/26 09:59:37;;;;;;;8.20;3.92;;;;;;;-145.50;100.00;65435.88;5095009;28;20486;-68
2022/04/26 10:02:10;;;;;;;9.25;3.90;;;;;;;-145.50;100.00;65435.88;5084686;28;20054;-68
2022/04/26 10:04:46;;;;;;;8.35;3.63;;;;;;;-145.50;100.00;65435.88;5097915;28;20078;-69
2022/04/26 10:07:17;;;;;;;6.93;3.28;;;;;;;-145.50;100.00;65435.88;5081655;28;20070;-69
2022/04/26 10:09:48;;;;;;;6.55;3.75;;;;;;;-145.50;100.00;65435.88;5096307;28;20554;-68
2022/04/26 10:12:16;;;;;;;5.85;3.45;;;;;;;-145.50;100.00;65435.88;5096362;28;20047;-70
2022/04/26 10:14:43;;;;;;;8.65;3.35;;;;;;;-145.50;100.00;65435.88;5092886;28;20064;-70
2022/04/26 10:17:09;;;;;;;8.05;3.67;;;;;;;-145.50;100.00;65435.88;5092011;28;20062;-68
2022/04/26 10:19:38;;;;;;;9.73;3.85;;;;;;;-145.50;100.00;65435.88;5085833;27;20474;-68
2022/04/26 10:22:07;;;;;;;;;;;;;;;-145.50;100.00;65435.88;5093656;28;20405;-68
2022/04/26 10:24:34;;;;;;;6.43;3.70;;;;;;;-145.50;100.00;65435.88;5092049;27;20379;-68
2022/04/26 10:27:17;;;;;;;7.47;3.83;;;;;;;-145.50;100.00;65435.88;5076026;28;20054;-68
2022/04/26 10:29:44;;;;;;;10.27;3.63;;;;;;;-145.50;100.00;65435.88;5085538;28;20043;-69
2022/04/26 10:32:11;;;;;;;7.95;3.72;;;;;;;-145.50;100.00;65435.88;5095989;28;20484;-68
2022/04/26 10:34:39;;;;;;;6.15;3.70;;;;;;;-145.50;100.00;65435.88;5092358;28;20459;-69
2022/04/26 10:37:09;;;;;;;5.65;2.88;;;;;;;-145.50;100.00;65435.88;5083248;28;20812;-69
2022/04/26 10:39:37;;;;;;;7.75;4.22;;;;;;;-145.50;100.00;65435.88;5085779;28;20593;-70
2022/04/26 10:42:27;;;;;;;6.78;3.72;;;;;;;-145.50;100.00;65435.88;5085809;28;20097;-68
2022/04/26 10:45:07;;;;;;;6.82;4.00;;;;;;;-145.50;100.00;65435.88;5103923;28;20051;-69
2022/04/26 10:47:34;;;;;;;9.27;3.88;;;;;;;-145.50;100.00;65435.88;5088037;28;20260;-68
2022/04/26 10:50:02;;;;;;;8.75;4.13;;;;;;;-145.50;100.00;65435.88;5091163;28;20043;-69
2022/04/26 10:52:33;;;;;;;7.57;4.03;;;;;;;-145.50;100.00;65435.88;5091359;27;21266;-68
2022/04/26 10:55:03;;;;;;;8.30;4.18;;;;;;;-145.50;100.00;65435.88;5085495;28;20060;-69
2022/04/26 10:57:35;;;;;;;7.10;3.85;;;;;;;-145.50;100.00;65435.88;5094468;28;20542;-69
2022/04/26 11:00:09;;;;;;;6.90;3.67;;;;;;;-145.50;100.00;65435.88;5096227;28;20055;-69
2022/04/26 11:02:40;;;;;;;7.28;3.88;;;;;;;-145.50;100.00;65435.88;5098061;28;20079;-69
2022/04/26 11:05:08;;;;;;;7.97;3.85;;;;;;;-145.50;100.00;65435.88;5099411;28;20449;-70
2022/04/26 11:07:36;;;;;;;7.07;3.58;;;;;;;-145.50;100.00;65435.88;5093435;28;20564;-69
2022/04/26 11:10:04;;;;;;;6.32;3.53;;;;;;;-145.50;100.00;65435.88;5083154;28;20066;-69
2022/04/26 11:12:34;;;;;;;5.13;3.25;;;;;;;-145.50;100.00;65435.88;5090511;28;20123;-69
2022/04/26 11:15:08;;;;;;;5.47;3.70;;;;;;;-145.50;100.00;65435.88;5090533;28;20056;-69
2022/04/26 11:17:35;;;;;;;6.93;3.58;;;;;;;-145.50;100.00;65435.88;5081175;28;20047;-69
2022/04/26 11:20:20;;;;;;;6.70;3.47;;;;;;;-145.50;100.00;65435.88;5089421;28;20048;-69
2022/04/26 11:22:52;;;;;;;8.23;3.67;;;;;;;-145.50;100.00;65435.88;5092074;28;20051;-69
2022/04/26 11:28:09;;;;;;;7.20;3.60;;;;;;;-145.50;100.00;65435.88;5085052;28;20052;-68
2022/04/26 11:30:44;;;;;;;8.75;3.70;;;;;;;-145.50;100.00;65435.88;5104087;28;20469;-69
2022/04/26 11:33:15;;;;;;;6.15;3.10;;;;;;;-145.50;100.00;65435.88;5089485;28;20099;-69
2022/04/26 11:35:42;;;;;;;6.40;3.70;;;;;;;-145.50;100.00;65435.88;5092771;28;20100;-69
2022/04/26 11:38:16;;;;;;;5.70;3.55;;;;;;;-145.50;100.00;65435.88;5096757;27;20140;-69
2022/04/26 11:40:54;;;;;;;7.68;3.65;;;;;;;-145.50;100.00;65435.88;5107777;28;20047;-69
2022/04/26 11:43:23;;;;;;;8.48;3.80;;;;;;;-145.50;100.00;65435.88;5101118;28;20052;-69
2022/04/26 11:45:52;;;;;;;6.57;3.70;;;;;;;-145.50;100.00;65435.88;5084515;27;20512;-68
2022/04/26 11:48:29;;;;;;;7.15;4.07;;;;;;;-145.50;100.00;65435.88;5087156;28;20552;-69
2022/04/26 11:50:58;;;;;;;6.93;3.70;;;;;;;-145.50;100.00;65435.88;5079703;28;20051;-69
2022/04/26 11:53:26;;;;;;;;;;;;;;;-145.50;100.00;65435.88;5090587;28;20047;-68
2022/04/26 11:55:58;;;;;;;7.13;3.60;;;;;;;-145.50;100.00;65435.88;5082963;28;19924;-69
2022/04/26 11:58:27;;;;;;;8.25;3.78;;;;;;;-145.50;100.00;65435.88;5089766;28;20135;-70
2022/04/26 12:01:02;;;;;;;6.47;3.80;;;;;;;-145.50;100.00;65435.88;5085411;27;20617;-68
2022/04/26 12:03:32;;;;;;;8.57;3.70;;;;;;;-145.50;100.00;65435.88;5092573;28;20729;-67
2022/04/26 12:05:58;;;;;;;6.60;3.80;;;;;;;-145.50;100.00;65435.88;5088758;28;20055;-68
2022/04/26 12:08:26;;;;;;;8.45;3.95;;;;;;;-145.50;100.00;65435.88;5081967;28;20607;-70
2022/04/26 12:10:53;;;;;;;7.43;4.13;;;;;;;-145.50;100.00;65435.88;5070731;28;20054;-69
2022/04/26 12:13:31;;;;;;;7.28;4.35;;;;;;;-145.50;100.00;65435.88;5082565;28;20288;-69
2022/04/26 12:16:18;;;;;;;7.65;3.67;;;;;;;-145.50;100.00;65435.88;5084875;28;20143;-69
2022/04/26 12:18:49;;;;;;;6.65;3.72;;;;;;;-145.50;100.00;65435.88;5078026;28;20052;-68
2022/04/26 12:21:16;;;;;;;6.90;3.75;;;;;;;-145.50;100.00;65435.88;5089148;28;20044;-69
2022/04/26 12:23:42;;;;;;;9.27;4.18;;;;;;;-145.50;100.00;65435.88;5083086;28;21011;-69
2022/04/26 12:26:09;;;;;;;7.63;3.85;;;;;;;-145.50;100.00;65435.88;5093268;28;20412;-69
2022/04/26 12:28:50;;;;;;;8.10;3.88;;;;;;;-145.50;100.00;65435.88;5096470;28;20052;-69
2022/04/26 12:31:21;;;;;;;7.75;3.97;;;;;;;-145.50;100.00;65435.88;5076382;28;20044;-69
2022/04/26 12:33:52;;;;;;;5.05;3.55;;;;;;;-145.50;100.00;65435.88;5093804;28;20401;-69
2022/04/26 12:36:18;;;;;;;7.28;3.38;;;;;;;-145.50;100.00;65435.88;5086016;28;20404;-69
2022/04/26 12:38:46;;;;;;;8.15;4.10;;;;;;;-145.50;100.00;65435.88;5102141;28;20043;-69
2022/04/26 12:41:13;;;;;;;7.78;4.72;;;;;;;-145.50;100.00;65435.88;5099995;27;20526;-69
2022/04/26 12:43:40;;;;;;;6.30;3.65;;;;;;;-145.50;100.00;65435.88;5097417;28;20047;-70
2022/04/26 12:46:06;;;;;;;7.10;3.78;;;;;;;-145.50;100.00;65435.88;5090411;28;20062;-69
2022/04/26 12:51:22;;;;;;;5.75;3.53;;;;;;;-145.50;100.00;65435.88;5102629;28;20054;-69
2022/04/26 12:54:09;;;;;;;5.97;3.38;;;;;;;-145.50;100.00;65435.88;5075437;28;20489;-69
2022/04/26 12:56:36;;;;;;;6.22;3.13;;;;;;;-145.50;100.00;65435.88;5087681;28;20135;-69
2022/04/26 12:59:14;;;;;;;7.85;3.58;;;;;;;-145.50;100.00;65435.88;5062417;28;20047;-69
2022/04/26 13:01:41;;;;;;;7.85;2.90;;;;;;;-145.50;100.00;65435.88;5105588;28;20134;-70
2022/04/26 13:04:07;;;;;;;5.35;3.22;;;;;;;-145.50;100.00;65435.88;5071171;28;20051;-69
2022/04/26 13:06:34;;;;;;;6.78;3.35;;;;;;;-145.50;100.00;65435.88;5089918;28;20485;-70
2022/04/26 13:09:20;;;;;;;6.28;3.17;;;;;;;-145.50;100.00;65435.88;5082364;28;20051;-69
2022/04/26 13:11:49;;;;;;;5.75;3.13;;;;;;;-145.50;100.00;65435.88;5097814;28;20411;-69
2022/04/26 13:14:15;;;;;;;7.13;3.08;;;;;;;-145.50;100.00;65435.88;5069364;28;20040;-69
2022/04/26 13:17:02;;;;;;;6.25;2.90;;;;;;;-145.50;100.00;65435.88;5087351;28;20516;-69
2022/04/26 13:19:29;;;;;;;6.67;3.10;;;;;;;-145.50;100.00;65435.88;5088496;28;20052;-68
2022/04/26 13:21:55;;;;;;;5.50;2.70;;;;;;;-145.50;100.00;65435.88;5081326;28;20052;-70
2022/04/26 13:24:28;;;;;;;4.28;2.90;;;;;;;-145.50;100.00;65435.88;5095176;28;20407;-68
2022/04/26 13:26:54;;;;;;;6.50;2.72;;;;;;;-145.50;100.00;65435.88;5074601;28;20039;-69
2022/04/26 13:29:20;;;;;;;7.47;3.05;;;;;;;-145.50;100.00;65435.88;5088314;28;20066;-69
2022/04/26 13:31:47;;;;;;;6.78;2.80;;;;;;;-145.50;100.00;65435.88;5080855;28;20131;-68
2022/04/26 13:34:13;;;;;;;5.65;3.00;;;;;;;-145.50;100.00;65435.88;5087672;28;20052;-69
2022/04/26 13:37:00;;;;;;;4.47;2.80;;;;;;;-145.50;100.00;65435.88;5088101;28;20044;-69
2022/04/26 13:39:26;;;;;;;5.25;2.92;;;;;;;-145.50;100.00;65435.88;5074444;28;20489;-68
2022/04/26 13:41:53;;;;;;;5.07;2.92;;;;;;;-145.50;100.00;65435.88;5090039;28;20151;-68
2022/04/26 13:44:20;;;;;;;6.03;2.70;;;;;;;-145.50;100.00;65435.88;5098851;27;20523;-68
2022/04/26 13:46:46;;;;;;;7.53;3.40;;;;;;;-145.50;100.00;65435.88;5102931;28;20050;-69
2022/04/26 13:49:13;;;;;;;6.15;2.60;;;;;;;-145.50;100.00;65435.88;5092665;28;20074;-68
2022/04/26 13:51:39;;;;;;;5.35;2.72;;;;;;;-145.50;100.00;65435.88;5095352;28;20070;-67
2022/04/26 13:54:06;;;;;;;6.85;2.92;;;;;;;-145.50;100.00;65435.88;5099933;28;20138;-69
2022/04/26 13:56:33;;;;;;;6.05;2.97;;;;;;;-145.50;100.00;65435.88;5084721;28;20050;-70
2022/04/26 13:58:59;;;;;;;5.10;3.10;;;;;;;-145.50;100.00;65435.88;5091625;28;20052;-69
2022/04/26 14:01:26;;;;;;;8.82;4.53;;;;;;;-145.50;100.00;65435.88;5086835;28;20048;-71
2022/04/26 14:03:52;;;;;;;4.47;2.90;;;;;;;-145.50;100.00;65435.88;5109771;28;20044;-69
2022/04/26 14:06:21;;;;;;;5.28;2.92;;;;;;;-145.50;100.00;65435.88;5086899;28;20075;-69
2022/04/26 14:08:49;;;;;;;3.95;2.35;;;;;;;-145.50;100.00;65435.88;5086769;28;20048;-69
2022/04/26 14:11:17;;;;;;;6.32;2.70;;;;;;;-145.50;100.00;65435.88;5092139;28;20048;-70
2022/04/26 14:22:19;;;;;;;3.30;2.42;;;;;;;-145.50;100.00;65435.88;5087164;28;20059;-69
2022/04/26 14:24:48;;;;;;;4.28;2.20;;;;;;;-145.50;100.00;65435.88;5097304;27;20127;-69
2022/04/26 14:27:14;;;;;;;5.22;2.20;;;;;;;-145.50;100.00;65435.88;5102339;28;20094;-71
2022/04/26 14:29:42;;;;;;;7.85;2.67;;;;;;;-145.50;100.00;65435.88;5065885;28;20054;-69
2022/04/26 14:32:08;;;;;;;9.02;3.17;;;;;;;-145.50;100.00;65435.88;5097408;28;20059;-69
2022/04/26 14:34:36;;;;;;;5.10;2.67;;;;;;;-145.50;100.00;65435.88;5084129;28;20047;-68
2022/04/26 14:37:03;;;;;;;7.00;2.50;;;;;;;-145.50;100.00;65435.88;5098389;28;20058;-68
2022/04/26 14:39:30;;;;;;;6.40;3.42;;;;;;;-145.50;100.00;65435.88;5099383;28;20177;-68
2022/04/26 14:41:57;;;;;;;5.23;2.90;;;;;;;-145.50;100.00;65435.88;5095906;27;20052;-68
2022/04/26 14:44:23;;;;;;;5.15;2.90;;;;;;;-145.50;100.00;65435.88;5102625;28;20048;-68
2022/04/26 14:46:50;;;;;;;4.85;2.88;;;;;;;-145.50;100.00;65435.88;5088165;28;20480;-68
2022/04/26 14:49:16;;;;;;;8.00;2.88;;;;;;;-145.50;100.00;65435.88;5097177;28;20051;-68
2022/04/26 14:51:43;;;;;;;9.20;2.90;;;;;;;-145.50;100.00;65435.88;5085438;28;20043;-70
2022/04/26 14:54:09;;;;;;;4.38;2.60;;;;;;;-145.50;100.00;65435.88;5093049;28;20052;-68
2022/04/26 14:56:36;;;;;;;7.60;2.70;;;;;;;-145.50;100.00;65435.88;5090623;28;20499;-69
2022/04/26 14:59:22;;;;;;;7.05;2.30;;;;;;;-145.50;100.00;65435.88;5091637;28;20051;-69
2022/04/26 15:01:49;;;;;;;3.90;2.40;;;;;;;-145.50;100.00;65435.88;5088533;28;20056;-70
2022/04/26 15:04:17;;;;;;;4.80;3.10;;;;;;;-145.50;100.00;65435.88;5097759;27;20055;-69
2022/04/26 15:06:44;;;;;;;5.78;2.53;;;;;;;-145.50;100.00;65435.88;5091171;28;20051;-70
2022/04/26 15:17:27;;;;;;;6.07;2.70;;;;;;;-145.50;100.00;65435.88;5101256;28;20039;-69
2022/04/26 15:19:54;;;;;;;8.88;2.58;;;;;;;-145.50;100.00;65435.88;5091098;28;20055;-68
2022/04/26 15:22:22;;;;;;;6.32;2.50;;;;;;;-145.50;100.00;65435.88;5084820;28;20052;-70
2022/04/26 15:24:50;;;;;;;5.78;2.95;;;;;;;-145.50;100.00;65435.88;5087929;28;20137;-68